PST,Max TemperatureF,Mean TemperatureF,Min TemperatureF,Max Dew PointF,MeanDew PointF,Min DewpointF,Max Humidity, Mean Humidity, Min Humidity, Max Sea Level PressureIn, Mean Sea Level PressureIn, Min Sea Level PressureIn, Max VisibilityMiles, Mean VisibilityMiles, Min VisibilityMiles, Max Wind SpeedMPH, Mean Wind SpeedMPH, Max Gust SpeedMPH,PrecipitationIn, CloudCover, Events, WindDirDegrees
2013-1-1,51,41,31,38,35,30,100,80,59,30.30,30.26,30.23,10,8,4,12,4,26,0.00,1,,330
2013-1-2,55,42,29,37,33,28,100,75,50,30.28,30.22,30.16,10,5,2,8,1,29,0.00,0,,72
2013-1-3,55,42,29,40,33,28,100,76,51,30.29,30.23,30.18,8,3,0,28,2,55,0.00,1,Fog,101
2013-1-4,55,42,28,39,34,28,100,77,54,30.33,30.28,30.21,8,3,0,6,1,8,0.00,0,Fog,108
2013-1-5,54,43,32,46,39,32,100,83,66,30.30,30.20,30.09,4,2,0,9,4,12,0.58,3,Fog-Rain,100
2013-1-6,49,46,42,46,44,40,100,93,86,30.18,30.12,30.09,10,4,1,10,3,14,0.55,7,Rain,313
2013-1-7,52,44,36,43,40,36,100,82,63,30.27,30.21,30.14,10,5,0,17,3,29,0.00,2,Fog,43
2013-1-8,56,45,34,43,38,33,100,81,61,30.27,30.21,30.17,10,4,1,7,0,8,0.00,0,,120
2013-1-9,51,44,37,45,40,33,100,78,56,30.18,30.09,29.98,10,4,0,24,2,31,T,2,Fog,253
2013-1-10,51,42,33,34,32,31,89,70,50,30.16,30.09,30.06,10,10,10,18,8,30,0.00,0,,321
2013-1-11,51,40,29,32,29,25,92,64,36,30.26,30.18,30.13,10,10,9,10,1,13,0.00,1,,317
2013-1-12,48,39,30,32,27,21,89,64,38,30.27,30.20,30.16,10,10,9,15,7,18,0.00,0,,305
2013-1-13,46,37,27,28,25,22,92,67,41,30.27,30.21,30.17,10,10,7,14,4,16,0.00,0,,305
2013-1-14,48,37,25,29,25,20,81,62,42,30.42,30.36,30.24,10,10,9,12,4,14,0.00,0,,304
2013-1-15,52,40,28,31,27,23,92,64,36,30.51,30.46,30.43,10,8,5,8,3,10,0.00,0,,109
2013-1-16,57,43,28,33,29,26,92,64,35,30.47,30.38,30.29,10,6,2,6,1,9,0.00,0,,108
2013-1-17,61,45,28,36,32,28,100,68,36,30.31,30.24,30.18,8,6,3,5,0,16,0.00,0,,130
2013-1-18,60,45,30,39,34,28,100,71,42,30.27,30.21,30.16,9,5,2,7,1,8,0.00,0,,326
2013-1-19,63,47,30,40,34,29,100,70,39,30.29,30.23,30.18,9,5,2,6,1,8,0.00,0,,92
2013-1-20,62,46,30,39,33,28,100,70,39,30.26,30.22,30.16,10,5,1,7,0,20,0.00,0,,260
2013-1-21,62,46,30,41,34,28,100,71,42,30.22,30.17,30.13,7,4,2,6,1,23,0.00,0,,138
2013-1-22,62,47,32,42,37,32,100,72,43,30.17,30.11,30.04,6,3,1,7,1,8,0.00,0,,152
2013-1-23,56,50,43,48,45,40,96,79,61,30.09,30.05,29.99,6,3,2,12,4,14,T,4,Rain,293
2013-1-24,54,51,48,52,49,46,100,95,89,30.20,30.14,30.07,5,2,0,13,6,16,0.03,8,Fog-Rain,314
2013-1-25,60,55,50,55,52,50,100,92,84,30.19,30.14,30.05,10,3,0,9,2,10,0.00,8,Fog,304
2013-1-26,63,55,46,55,49,33,100,69,37,30.06,30.00,29.96,10,5,0,18,3,23,0.00,6,Fog,319
2013-1-27,56,47,37,38,35,30,92,65,38,30.15,30.10,30.05,10,10,10,20,7,25,0.00,0,,313
2013-1-28,57,46,35,40,36,33,92,68,43,30.26,30.19,30.13,10,10,10,21,8,29,0.00,0,,322
2013-1-29,59,49,38,40,38,37,92,70,47,30.32,30.28,30.26,10,10,10,16,5,25,0.00,0,,327
2013-1-30,63,49,35,43,39,34,100,74,48,30.37,30.31,30.27,10,9,6,7,2,10,0.00,0,,130
2013-1-31,65,50,35,44,40,35,100,72,44,30.31,30.26,30.19,9,6,2,5,1,15,0.00,0,,122